Clover Valley, Nevada Weather observations

Data are for 10 minute period ending at time listed.
 Day   Time   Solar   Ave.   Ave.  Ave.  Vector  Max.   Baro.   Total    
  of    of     Rad.   Air    Rel.  Wind   Wind   Wind  Press.  Precip.   
Year   Day            Temp.  Hum.  Speed  Dir.   Gust                    
2015   (PST)  Kw/m2    F      %     mph   deg.    mph    mb.     in.     
-------------------------------------------------------------------------
  25    3:20   0.00   22.0    93    3.5   349     4.6   837.8    0.00 
  25    3:30   0.00   22.1    93    2.8    17     4.2   837.8    0.00 
  25    3:40   0.00   20.9    92    2.9    29     4.2   837.8    0.00 
  25    3:50   0.00   19.9    92    3.4    19     4.1   837.8    0.00 
  25    4:00   0.00   20.4    93    2.1    24     3.6   837.8    0.00 
  25    4:10   0.00   20.8    93    3.0    42     4.5   837.9    0.00 
  25    4:20   0.00   21.5    93    3.6    51     5.0   837.8    0.00 
  25    4:30   0.00   20.3    91    2.7    80     4.0   837.6    0.00 
  25    4:40   0.00   19.3    92    1.8   200     4.2   837.5    0.00 
  25    4:50   0.00   19.3    93    1.8   183     4.1   837.5    0.00 
  25    5:00   0.00   19.3    93    0.7   305     2.6   837.6    0.00 
  25    5:10   0.00   19.5    93    2.1   321     3.5   837.6    0.00 
  25    5:20   0.00   19.5    93    3.2   330     4.7   837.7    0.00 
  25    5:30   0.00   19.5    94    3.9   309     5.0   837.7    0.00 
  25    5:40   0.00   19.5    93    2.8   335     3.9   837.8    0.00 
  25    5:50   0.00   19.7    94    2.9   322     4.2   838.0    0.00 
  25    6:00   0.00   20.3    94    3.2    40     4.2   838.0    0.00 
  25    6:10   0.00   19.9    93    1.4    24     2.2   838.2    0.00 
  25    6:20   0.00   19.7    93    3.7     8     5.1   838.3    0.00 
  25    6:30   0.00   19.1    93    3.4   358     5.1   838.3    0.00 
  25    6:40   0.00   19.2    93    3.0   307     4.7   838.3    0.00 
  25    6:50   0.00   19.3    94    2.8   263     3.9   838.4    0.00 
  25    7:00   0.00   19.6    94    4.3   249     5.5   838.3    0.00 
  25    7:10   0.00   20.8    94    4.4   256     5.8   838.2    0.00 
  25    7:20   0.00   21.9    93    3.1   248     4.1   838.1    0.00 
  25    7:30   0.00   22.9    92    2.1   307     3.4   838.2    0.00 
  25    7:40   0.00   24.7    91    0.5     5     2.7   838.3    0.00 
  25    7:50   0.00   25.3    88    1.6    83     3.1   838.2    0.00 
  25    8:00   0.00   24.7    88    3.0    94     4.9   838.2    0.00 
  25    8:10   0.00   24.6    90    3.7   108     4.8   838.1    0.00 
  25    8:20   0.00   26.3    89    2.5    82     4.7   838.4    0.00 
  25    8:30   0.00   28.9    86    2.4   164     4.7   838.2    0.00 
  25    8:40   0.00   30.5    84    2.2   252     3.7   838.2    0.00 
  25    8:50   0.00   31.0    85    1.3   326     3.0   838.4    0.00 
  25    9:00   0.00   32.9    81    1.5   155     3.7   838.3    0.00 
  25    9:10   0.13   33.8    81    1.5   237     3.1   838.2    0.00 
  25    9:20   0.00   35.0    79    2.0   232     4.3   838.1    0.00 
  25    9:30   0.04   35.6    78    1.1   340     2.5   838.1    0.00 
  25    9:40   0.13   36.2    77    1.8    77     3.1   838.1    0.00 
  25    9:50   0.23   36.2    77    1.7    32     3.9   838.2    0.00 
  25   10:00   0.31   37.3    75    1.1   345     2.4   838.2    0.00 
  25   10:10   0.41   38.5    72    0.7   354     2.3   838.3    0.00 
  25   10:20   0.45   40.3    68    0.4   322     2.5   838.2    0.00 
  25   10:30   0.47   40.5    67    1.2    34     2.5   838.2    0.00 
  25   10:40   0.48   41.0    65    1.2    57     2.7   838.2    0.00 
  25   10:50   0.49   42.7    62    0.8   150     2.6   838.2    0.00 
  25   11:00   0.49   44.1    60    1.2   106     2.9   838.1    0.00 
  25   11:10   0.51   45.0    57    1.0   185     3.0   838.0    0.00 
  25   11:20   0.52   45.8    55    0.4   248     1.4   837.9    0.00 
  25   11:30   0.52   46.4    56    1.5   293     4.0   837.7    0.00 
  25   11:40   0.52   45.3    57    2.4   345     5.3   837.6    0.00 
  25   11:50   0.53   46.1    56    1.5   352     4.2   837.4    0.00 
  25   12:00   0.53   46.6    56    2.1    64     4.4   837.3    0.00 
  25   12:10   0.52   47.3    55    2.4   106     4.2   837.2    0.00 
  25   12:20   0.52   48.2    54    2.5   117     5.4   837.1    0.00 
  25   12:30   0.52   49.6    52    1.4   188     4.2   837.1    0.00 
  25   12:40   0.52   50.9    50    2.2   225     5.2   836.9    0.00 
  25   12:50   0.51   50.1    51    1.9   288     4.9   836.7    0.00 
  25   13:00   0.50   51.3    49    1.0   111     2.8   836.6    0.00 
  25   13:10   0.49   51.5    50    2.0   246     3.6   836.5    0.00 
  25   13:20   0.48   52.1    49    1.7   190     3.9   836.4    0.00 
  25   13:30   0.46   52.3    48    1.5   174     3.1   836.4    0.00 
  25   13:40   0.46   52.9    47    1.1   291     3.7   836.3    0.00 
  25   13:50   0.40   53.4    46    1.3   284     3.3   836.2    0.00 
  25   14:00   0.39   53.8    45    1.2   269     3.1   836.2    0.00 
  25   14:10   0.37   53.8    44    0.9    20     3.1   836.2    0.00 
  25   14:20   0.36   53.8    44    1.6    18     3.9   836.2    0.00 
  25   14:30   0.36   53.5    46    2.0     8     4.3   836.2    0.00 
  25   14:40   0.34   53.8    45    1.6    17     3.7   836.2    0.00 
  25   14:50   0.32   54.7    44    0.8   345     2.9   836.2    0.00 
  25   15:00   0.29   55.4    42    0.7   288     2.2   836.2    0.00 
  25   15:10   0.26   56.8    40    1.1   202     2.7   836.1    0.00 
  25   15:20   0.23   56.1    41    1.2   137     2.1   836.1    0.00 
  25   15:30   0.21   56.2    41    1.5   212     2.8   836.0    0.00 
  25   15:40   0.18   56.8    40    0.8   189     3.1   835.9    0.00 
  25   15:50   0.16   55.9    41    1.0   154     1.9   835.8    0.00 
  25   16:00   0.13   57.1    39    0.6   196     1.5   835.8    0.00 
  25   16:10   0.10   55.5    41    0.0     0     0.0   835.7    0.00 
  25   16:20   0.07   54.7    43    0.1   338     0.9   835.7    0.00 
  25   16:30   0.02   51.2    50    0.6   232     2.5   835.8    0.00 
  25   16:40   0.01   45.9    59    4.4   265     6.9   835.7    0.00 
  25   16:50   0.01   42.0    67    4.1   317     4.7   835.5    0.00 
  25   17:00   0.01   39.1    71    4.2   299     4.5   835.3    0.00 
  25   17:10   0.00   36.2    74    3.2   316     4.2   835.4    0.00 
  25   17:20   0.00   34.2    81    4.3   325     4.8   835.4    0.00 
  25   17:30   0.00   35.3    79    5.4   318     6.6   835.5    0.00 
  25   17:40   0.00   36.0    77    4.7   297     6.0   835.7    0.00 
  25   17:50   0.00   34.1    80    3.6   214     6.0   835.9    0.00 
  25   18:00   0.00   31.5    84    1.4   220     4.1   836.0    0.00 
  25   18:10   0.00   32.1    85    3.2   328     4.1   836.0    0.00 
  25   18:20   0.00   31.6    85    3.8   359     4.9   836.2    0.00 
  25   18:30   0.00   29.9    87    4.0   323     4.7   836.3    0.00 
  25   18:40   0.00   29.9    88    5.1   330     6.6   836.2    0.00 
  25   18:50   0.00   30.4    90    6.0   326     7.2   836.2    0.00 
  25   19:00   0.00   31.1    88    4.5   338     5.2   836.2    0.00 
  25   19:10   0.00   31.1    88    5.1   329     5.6   836.1    0.00 
  25   19:20   0.00   30.5    89    4.3   318     5.5   836.2    0.00 
  25   19:30   0.00   29.9    90    4.6   332     5.3   836.1    0.00 
  25   19:40   0.00   28.9    90    1.3    94     4.7   836.0    0.00 
  25   19:50   0.00   29.4    92    4.3   330     5.8   836.0    0.00 
  25   20:00   0.00   29.8    91    4.2   315     5.8   836.0    0.00 
  25   20:10   0.00   29.9    90    4.7   277     6.2   836.1    0.00 
  25   20:20   0.00   29.2    91    2.4   254     4.6   836.2    0.00 
  25   20:30   0.00   28.6    91    2.3   193     4.5   836.3    0.00 
  25   20:40   0.00   27.6    92    1.5   176     4.2   836.3    0.00 
  25   20:50   0.00   27.0    93    0.0     0     0.0   836.4    0.00 
  25   21:00   0.00   27.5    95    0.4   165     1.5   836.4    0.00 
  25   21:10   0.00   27.9    93    2.9    24     4.2   836.4    0.00 
  25   21:20   0.00   25.9    92    2.6    35     3.5   836.5    0.00 
  25   21:30   0.00   25.4    93    2.8   358     3.7   836.7    0.00 
  25   21:40   0.00   24.9    94    2.8   334     3.8   836.8    0.00 
  25   21:50   0.00   25.0    94    2.9   320     3.7   836.9    0.00 
  25   22:00   0.00   25.7    94    3.3    18     3.9   836.8    0.00 
  25   22:10   0.00   25.8    92    4.1   340     5.3   836.9    0.00 
  25   22:20   0.00   25.7    93    3.1     7     5.4   836.9    0.00 
  25   22:30   0.00   25.7    93    4.0    26     4.7   836.8    0.00 
  25   22:40   0.00   25.6    94    3.8   359     4.4   836.8    0.00 
  25   22:50   0.00   25.4    93    3.3    29     3.9   836.7    0.00 
  25   23:00   0.00   24.8    93    3.6   348     4.5   836.6    0.00 
  25   23:10   0.00   24.9    93    3.4   333     4.2   836.5    0.00 
  25   23:20   0.00   24.7    93    1.6   309     3.0   836.5    0.00 
  25   23:30   0.00   24.8    93    3.3   244     4.1   836.7    0.00 
  25   23:40   0.00   25.1    94    4.0   260     5.4   836.6    0.00 
  25   23:50   0.00   25.7    95    4.9   276     5.7   836.6    0.00 
  26    0:00   0.00   25.3    93    2.6   140     5.3   836.6    0.00 
  26    0:10   0.00   23.6    93    2.4   117     3.9   836.7    0.00 
  26    0:20   0.00   23.4    94    1.5    39     3.1   836.6    0.00 
  26    0:30   0.00   22.8    94    3.5    50     4.8   836.7    0.00 
  26    0:40   0.00   22.6    94    1.2    50     2.9   836.7    0.00 
  26    0:50   0.00   22.5    93    1.2   216     2.0   836.8    0.00 
  26    1:00   0.00   22.3    93    0.1    96     1.1   836.8    0.00 
  26    1:10   0.00   22.5    94    0.2    87     1.0   836.8    0.00 
  26    1:20   0.00   22.9    94    1.6   341     2.7   836.8    0.00 
  26    1:30   0.00   23.1    94    1.4   320     2.9   836.9    0.00 
  26    1:40   0.00   23.5    94    1.2     2     2.5   836.9    0.00 
  26    1:50   0.00   23.0    93    3.5   338     4.5   837.0    0.00 
  26    2:00   0.00   22.8    94    3.1   340     4.4   836.9    0.00 
  26    2:10   0.00   22.9    93    2.6    21     3.4   836.7    0.00 
  26    2:20   0.00   22.2    92    2.1    24     3.9   836.6    0.00 
  26    2:30   0.00   21.9    93    0.2   294     1.1   836.5    0.00 
  26    2:40   0.00   22.1    94    0.7   311     1.8   836.4    0.00 
  26    2:50   0.00   22.4    93    1.1   334     2.9   836.3    0.00 
  26    3:00   0.00   22.4    94    3.3   290     4.5   836.2    0.00 
  26    3:10   0.00   22.9    94    1.1   299     2.0   836.1    0.00 

Return to Clover Valley graphs page.


Western Regional Climate Center,wrcc@dri.edu